Time;durP1;ratioP1;P1;durP2;ratioP2;P2;SDS_P1;SDS_P2;PMS_P1;PMS_P2;Temp;Humidity;BMP_temperature;BMP_pressure;BME280_temperature;BME280_humidity;BME280_pressure;Samples;Min_cycle;Max_cycle;Signal;HPM_P1;HPM_P2
2021/03/16 00:08:15;;;;;;;0.07;0.00;;;0.80;89.70;;;;;;20725385;28;20102;-49
2021/03/16 00:18:18;;;;;;;0.52;0.00;;;0.70;89.40;;;;;;20707619;28;20041;-49
2021/03/16 00:28:20;;;;;;;0.00;0.00;;;0.50;86.80;;;;;;20690831;28;20046;-50
2021/03/16 00:38:22;;;;;;;0.10;0.00;;;0.50;87.60;;;;;;20674089;28;20046;-55
2021/03/16 00:48:24;;;;;;;0.20;0.00;;;0.30;87.40;;;;;;20706015;28;20043;-50
2021/03/16 00:58:30;;;;;;;0.00;0.00;;;0.10;87.80;;;;;;20721639;28;20045;-50
2021/03/16 01:08:33;;;;;;;0.47;0.00;;;0.20;83.70;;;;;;20704946;28;20128;-51
2021/03/16 01:18:34;;;;;;;0.05;0.00;;;0.10;80.60;;;;;;20720419;28;20041;-47
2021/03/16 01:28:36;;;;;;;0.00;0.00;;;0.10;83.30;;;;;;20737216;28;20447;-47
2021/03/16 01:38:38;;;;;;;0.32;0.00;;;0.20;80.60;;;;;;20736816;28;20104;-52
2021/03/16 01:48:40;;;;;;;0.00;0.00;;;0.20;80.50;;;;;;20686806;28;20080;-51
2021/03/16 01:58:44;;;;;;;0.85;0.00;;;0.00;80.20;;;;;;20716092;28;20134;-49
2021/03/16 02:09:24;;;;;;;0.00;0.00;;;-0.20;79.40;;;;;;20638838;28;20515;-48
2021/03/16 02:19:50;;;;;;;0.20;0.00;;;-0.30;78.80;;;;;;20637922;28;20054;-52
2021/03/16 02:30:12;;;;;;;0.00;0.00;;;-0.10;77.30;;;;;;20636523;28;20073;-51
2021/03/16 02:40:35;;;;;;;1.70;0.00;;;-0.40;80.20;;;;;;20650308;28;20170;-48
2021/03/16 02:50:56;;;;;;;0.65;0.00;;;-0.80;82.30;;;;;;20649424;28;20120;-49
2021/03/16 03:01:18;;;;;;;0.03;0.00;;;-0.90;83.20;;;;;;20634487;28;20042;-51
2021/03/16 03:11:39;;;;;;;0.00;0.00;;;-1.00;83.10;;;;;;20647749;28;20054;-56
2021/03/16 03:22:25;;;;;;;0.08;0.00;;;-1.10;82.50;;;;;;20632727;28;20038;-50
2021/03/16 03:32:46;;;;;;;0.00;0.00;;;-1.10;81.20;;;;;;20645250;28;20039;-47
2021/03/16 03:43:09;;;;;;;0.00;0.00;;;-1.00;80.40;;;;;;20630969;28;20559;-47
2021/03/16 03:53:30;;;;;;;0.08;0.00;;;-1.00;78.50;;;;;;20645303;28;20038;-51
2021/03/16 04:03:51;;;;;;;0.57;0.10;;;-1.10;80.80;;;;;;20629555;28;20116;-49
2021/03/16 04:14:11;;;;;;;0.10;0.00;;;-1.40;84.10;;;;;;20642038;28;20393;-50
2021/03/16 04:24:33;;;;;;;0.10;0.00;;;-1.70;86.10;;;;;;20628644;28;20481;-54
2021/03/16 04:34:53;;;;;;;0.13;0.00;;;-2.10;87.10;;;;;;20628194;28;20079;-48
2021/03/16 04:45:14;;;;;;;2.90;0.00;;;-2.20;80.50;;;;;;20642865;28;20081;-55
2021/03/16 04:55:35;;;;;;;0.30;0.00;;;-1.90;72.40;;;;;;20627199;28;20041;-50
2021/03/16 05:05:56;;;;;;;0.00;0.00;;;-1.20;73.00;;;;;;20627649;28;20412;-57
2021/03/16 05:16:17;;;;;;;0.13;0.03;;;-0.40;66.00;;;;;;20633375;28;20046;-49
2021/03/16 05:26:37;;;;;;;0.40;0.00;;;-0.10;68.30;;;;;;20644228;28;20042;-47
2021/03/16 05:36:58;;;;;;;0.00;0.00;;;-0.40;69.70;;;;;;20641818;28;20065;-49
2021/03/16 05:47:20;;;;;;;0.10;0.00;;;-0.30;72.20;;;;;;20652418;28;20035;-49
2021/03/16 05:57:40;;;;;;;0.70;0.00;;;-0.40;74.80;;;;;;20665864;28;20101;-55
2021/03/16 06:08:01;;;;;;;0.10;0.00;;;-1.00;80.40;;;;;;20638523;28;20050;-54
2021/03/16 06:18:29;;;;;;;0.00;0.00;;;-1.30;80.90;;;;;;20637355;28;20038;-48
2021/03/16 06:28:50;;;;;;;0.10;0.00;;;-1.20;81.30;;;;;;20636871;28;20038;-49
2021/03/16 06:39:18;;;;;;;0.05;0.00;;;-0.60;78.10;;;;;;20635296;28;20117;-49
2021/03/16 06:49:40;;;;;;;0.00;0.00;;;0.00;78.00;;;;;;20649767;28;20073;-50
2021/03/16 07:00:09;;;;;;;0.20;0.00;;;0.10;78.90;;;;;;20634410;28;20043;-47
2021/03/16 07:10:31;;;;;;;0.00;0.00;;;0.30;78.20;;;;;;20647857;28;20130;-51
2021/03/16 07:20:55;;;;;;;0.20;0.00;;;0.70;76.60;;;;;;20633425;28;20362;-48
2021/03/16 07:31:17;;;;;;;0.10;0.00;;;1.30;70.70;;;;;;20631886;28;20031;-47
2021/03/16 07:41:40;;;;;;;0.43;0.00;;;1.80;68.70;;;;;;20631280;28;20038;-47
2021/03/16 07:52:02;;;;;;;0.00;0.00;;;2.10;68.40;;;;;;20630450;28;20092;-49
2021/03/16 08:02:27;;;;;;;0.10;0.03;;;2.60;66.80;;;;;;20629958;28;20074;-47
2021/03/16 08:13:02;;;;;;;0.00;0.00;;;3.00;65.10;;;;;;20562411;28;20054;-49
2021/03/16 08:23:32;;;;;;;0.00;0.00;;;3.30;64.90;;;;;;20487116;28;20078;-48
2021/03/16 08:33:53;;;;;;;0.20;0.00;;;3.90;61.80;;;;;;20482805;28;20039;-47
2021/03/16 08:44:16;;;;;;;0.25;0.00;;;3.40;63.90;;;;;;20495218;28;20398;-49
2021/03/16 08:54:38;;;;;;;0.60;0.00;;;4.10;62.80;;;;;;20497945;28;20039;-45
2021/03/16 09:04:59;;;;;;;1.60;0.00;;;4.40;57.50;;;;;;20536517;28;20531;-48
2021/03/16 09:15:25;;;;;;;0.10;0.00;;;4.30;58.10;;;;;;20657407;28;20093;-48
2021/03/16 09:25:46;;;;;;;0.10;0.00;;;4.50;54.70;;;;;;20656360;28;20030;-46
2021/03/16 09:36:07;;;;;;;0.90;0.10;;;5.30;52.00;;;;;;20641024;28;20455;-51
2021/03/16 09:46:29;;;;;;;0.10;0.00;;;6.00;56.80;;;;;;20640064;28;20030;-51
2021/03/16 09:56:33;;;;;;;0.00;0.00;;;6.30;53.10;;;;;;20635854;28;20055;-47
2021/03/16 10:06:38;;;;;;;0.57;0.00;;;6.60;50.50;;;;;;20636198;28;20054;-44
2021/03/16 10:16:40;;;;;;;0.35;0.10;;;6.50;54.60;;;;;;20650816;28;20042;-45
2021/03/16 10:26:43;;;;;;;0.10;0.00;;;7.40;53.70;;;;;;20633926;28;20336;-45
2021/03/16 10:36:45;;;;;;;0.20;0.08;;;7.70;46.80;;;;;;20633393;28;20337;-47
2021/03/16 10:46:47;;;;;;;0.20;0.00;;;7.10;50.40;;;;;;20632709;28;20069;-45
2021/03/16 10:56:51;;;;;;;1.30;0.00;;;7.30;45.50;;;;;;20631721;28;20096;-45
2021/03/16 11:06:53;;;;;;;1.35;0.00;;;7.50;49.20;;;;;;20631051;28;20120;-46
2021/03/16 11:16:55;;;;;;;0.13;0.00;;;7.70;45.50;;;;;;20614515;28;20096;-46
2021/03/16 11:26:57;;;;;;;0.20;0.00;;;6.80;52.60;;;;;;20613456;28;20417;-46
2021/03/16 11:36:59;;;;;;;0.20;0.10;;;7.80;48.90;;;;;;20597265;28;20061;-45
2021/03/16 11:47:19;;;;;;;0.10;0.00;;;7.40;42.70;;;;;;20630852;28;20042;-47
2021/03/16 11:57:40;;;;;;;0.57;0.10;;;6.40;44.70;;;;;;20630439;28;20536;-45
2021/03/16 12:08:00;;;;;;;0.10;0.00;;;7.30;41.60;;;;;;20895146;23;20061;-46
2021/03/16 12:18:21;;;;;;;3.60;0.10;;;8.00;45.80;;;;;;20790595;28;20490;-45
2021/03/16 12:28:41;;;;;;;0.10;0.00;;;8.40;48.10;;;;;;20805604;28;20045;-57
2021/03/16 12:39:04;;;;;;;2.50;0.00;;;7.40;38.20;;;;;;20805159;28;20045;-47
2021/03/16 12:49:24;;;;;;;0.40;0.00;;;6.60;39.90;;;;;;20772946;28;20042;-47
2021/03/16 12:59:45;;;;;;;0.08;0.00;;;7.40;43.20;;;;;;20804935;28;20083;-47
2021/03/16 13:10:08;;;;;;;0.60;0.00;;;8.90;39.50;;;;;;20789375;28;20054;-46
2021/03/16 13:20:28;;;;;;;0.10;0.00;;;7.20;36.90;;;;;;20789077;28;20030;-44
2021/03/16 13:30:49;;;;;;;1.30;0.00;;;6.30;38.90;;;;;;20788448;28;20812;-47
2021/03/16 13:41:09;;;;;;;0.67;0.00;;;6.70;38.70;;;;;;20787458;28;20507;-50
2021/03/16 13:51:30;;;;;;;0.13;0.00;;;7.30;38.30;;;;;;20794520;28;20045;-46
2021/03/16 14:01:50;;;;;;;0.00;0.00;;;7.40;36.60;;;;;;20816307;28;20049;-53
2021/03/16 14:12:11;;;;;;;0.00;0.00;;;7.30;36.50;;;;;;20783677;28;20104;-56
2021/03/16 14:22:31;;;;;;;0.00;0.00;;;7.30;34.90;;;;;;20718683;28;20072;-46
2021/03/16 14:32:52;;;;;;;0.10;0.00;;;7.00;35.20;;;;;;20718194;28;20103;-47
2021/03/16 14:43:12;;;;;;;0.07;0.00;;;6.70;34.30;;;;;;20732172;28;20046;-49
2021/03/16 14:53:33;;;;;;;0.33;0.00;;;6.60;37.00;;;;;;20730721;28;20057;-52
2021/03/16 15:03:53;;;;;;;0.00;0.00;;;6.90;35.10;;;;;;20730596;28;20046;-48
2021/03/16 15:14:13;;;;;;;0.00;0.00;;;6.70;33.60;;;;;;20713703;28;20099;-47
2021/03/16 15:24:34;;;;;;;0.00;0.00;;;6.30;35.00;;;;;;20728484;28;20046;-49
2021/03/16 15:34:54;;;;;;;0.37;0.00;;;5.50;33.70;;;;;;20727254;28;20484;-46
2021/03/16 15:45:15;;;;;;;0.03;0.00;;;5.30;34.70;;;;;;20727410;28;20455;-51
2021/03/16 15:55:35;;;;;;;0.00;0.00;;;4.90;35.70;;;;;;20694822;28;20076;-46
2021/03/16 16:05:55;;;;;;;0.33;0.00;;;4.30;36.30;;;;;;20709865;28;20085;-53
2021/03/16 16:16:16;;;;;;;0.00;0.00;;;3.70;38.40;;;;;;20723919;28;20550;-50
2021/03/16 16:26:36;;;;;;;0.00;0.00;;;3.40;39.50;;;;;;20724394;28;20046;-50
2021/03/16 16:36:57;;;;;;;0.00;0.00;;;3.20;38.90;;;;;;20723908;28;20381;-53
2021/03/16 16:47:17;;;;;;;1.50;0.00;;;3.00;39.10;;;;;;20723444;28;20037;-47
2021/03/16 16:57:38;;;;;;;0.10;0.00;;;2.90;40.40;;;;;;20723297;28;20446;-49
2021/03/16 17:07:58;;;;;;;0.00;0.00;;;2.40;43.30;;;;;;20722334;28;20053;-48
2021/03/16 17:18:19;;;;;;;0.00;0.00;;;1.70;46.10;;;;;;20710632;28;20108;-47
2021/03/16 17:28:39;;;;;;;0.97;0.00;;;1.30;47.90;;;;;;20719108;28;20085;-51
2021/03/16 17:39:02;;;;;;;0.00;0.00;;;1.20;45.90;;;;;;20722324;28;20476;-47
2021/03/16 17:49:23;;;;;;;0.00;0.00;;;0.70;50.80;;;;;;20729716;28;20476;-47
2021/03/16 17:59:43;;;;;;;0.23;0.00;;;0.90;47.80;;;;;;20720012;28;20045;-47
2021/03/16 18:10:04;;;;;;;0.03;0.00;;;0.80;45.10;;;;;;20732472;28;20050;-48
2021/03/16 18:20:24;;;;;;;0.20;0.00;;;0.50;49.80;;;;;;20779497;28;20041;-50
2021/03/16 18:30:45;;;;;;;0.00;0.00;;;0.10;46.30;;;;;;20768986;28;20451;-56
2021/03/16 18:41:07;;;;;;;0.00;0.00;;;0.10;50.40;;;;;;20730912;28;20041;-49
2021/03/16 18:51:28;;;;;;;0.00;0.00;;;0.00;48.90;;;;;;20730841;28;20115;-51
2021/03/16 19:01:48;;;;;;;0.03;0.00;;;-0.40;54.20;;;;;;20715839;28;20076;-48
2021/03/16 19:12:09;;;;;;;0.00;0.00;;;-1.20;59.30;;;;;;20715791;28;20045;-46
2021/03/16 19:22:30;;;;;;;0.10;0.00;;;-1.90;62.60;;;;;;20729950;28;20065;-47
2021/03/16 19:32:50;;;;;;;5.53;0.10;;;-2.10;66.40;;;;;;20712674;28;20042;-51
2021/03/16 19:43:13;;;;;;;0.30;0.00;;;-2.20;68.40;;;;;;20713531;28;20038;-47
2021/03/16 19:53:33;;;;;;;0.10;0.00;;;-2.30;67.90;;;;;;20712420;28;20041;-48
2021/03/16 20:03:54;;;;;;;0.13;0.00;;;-2.40;69.90;;;;;;20711017;28;20116;-48
2021/03/16 20:14:16;;;;;;;0.10;0.00;;;-2.50;71.70;;;;;;20726550;28;20050;-50
2021/03/16 20:24:37;;;;;;;0.00;0.00;;;-2.40;70.30;;;;;;20806468;28;20041;-52
2021/03/16 20:34:58;;;;;;;2.47;0.10;;;-2.30;66.20;;;;;;20804329;28;20046;-47
2021/03/16 20:45:21;;;;;;;0.20;0.10;;;-1.70;59.20;;;;;;20790020;28;20033;-48
2021/03/16 20:55:43;;;;;;;1.35;0.10;;;-0.80;54.50;;;;;;20789819;28;20447;-50
2021/03/16 21:06:03;;;;;;;0.05;0.00;;;-0.50;53.00;;;;;;20806041;28;20393;-49
2021/03/16 21:16:26;;;;;;;0.22;0.10;;;-0.40;52.80;;;;;;20765373;28;20072;-46
2021/03/16 21:26:46;;;;;;;0.00;0.00;;;-0.10;52.00;;;;;;20798173;28;20107;-50
2021/03/16 21:37:07;;;;;;;0.77;0.13;;;-0.30;54.00;;;;;;20815916;28;20107;-49
2021/03/16 21:47:27;;;;;;;0.40;0.10;;;-0.50;55.00;;;;;;20741921;28;20431;-50
2021/03/16 21:57:49;;;;;;;0.20;0.00;;;-0.50;54.50;;;;;;20718848;28;20038;-52
2021/03/16 22:08:10;;;;;;;0.08;0.00;;;-0.50;54.40;;;;;;20785813;28;20057;-48
2021/03/16 22:18:30;;;;;;;0.10;0.10;;;-0.50;54.70;;;;;;20730998;28;20038;-50
2021/03/16 22:28:51;;;;;;;0.10;0.00;;;-0.70;56.20;;;;;;20716867;28;20062;-52
2021/03/16 22:39:11;;;;;;;1.50;0.20;;;-0.80;56.50;;;;;;20715681;28;20104;-52
2021/03/16 22:49:32;;;;;;;0.10;0.00;;;-0.90;57.50;;;;;;20792645;28;20465;-48
2021/03/16 22:59:53;;;;;;;0.10;0.10;;;-0.80;56.00;;;;;;20757600;28;20042;-46
2021/03/16 23:10:16;;;;;;;0.30;0.10;;;-0.60;53.80;;;;;;20798039;28;20057;-47
2021/03/16 23:20:40;;;;;;;0.73;0.10;;;-0.50;55.90;;;;;;20728412;28;20045;-46
2021/03/16 23:31:03;;;;;;;0.63;0.10;;;-0.60;56.20;;;;;;20727109;28;20054;-48
2021/03/16 23:41:24;;;;;;;0.08;0.00;;;-0.60;56.00;;;;;;20726921;28;20046;-47
2021/03/16 23:51:44;;;;;;;0.17;0.03;;;-0.50;54.40;;;;;;20725245;28;20053;-50
